Accueil
METAR-TAF:

METAR-TAF

Aéroports :

Eastsound, Washington, États-Unis

Orcas Island Airport

latitude: 48-42-29N, longitude: 122-54-37W, altitude: 9 m

Observation

Le bulletin a été fait il y a 27 minutes, à 21:35 UTC
Vent 5 kt de nord
Température 8°C
Humidité 81%
Pression 1031 hPa
Visibilité: 14.5 km
Ciel clair

METAR: KORS 122135Z AUTO 35005KT 9SM CLR 08/05 A3045 RMK AO2

Heure: 14:02 (22:02 UTC)


TAF: absent

Observations et prévisions météorologiques de plus de 4000 aéroports (messages METAR et TAF).

Les stations disponibles sont représentées par des disques jaunes et rouges sur la carte.

Passer la souris dessus pour voir le nom de la station.

Cliquer dessus pour voir les observations et prévisions météorologiques.

Pour changer de carte: cliquez sur les boutons verts avec une croix noire pour zoomer, sur le bouton vert avec un tiret pour effectuer un zoom arrière, ou sur les flèches vertes pour les cartes adjacentes.


METAR-TAF: